createdAt,value
2019-04-22T00:00:55.695Z,924.73
2019-04-22T00:02:26.676Z,924.70
2019-04-22T00:04:04.821Z,924.66
2019-04-22T00:05:48.363Z,924.64
2019-04-22T00:07:24.081Z,924.65
2019-04-22T00:08:55.637Z,924.63
2019-04-22T00:10:34.146Z,924.61
2019-04-22T00:12:11.246Z,924.61
2019-04-22T00:13:40.807Z,924.60
2019-04-22T00:14:57.080Z,924.57
2019-04-22T00:16:47.296Z,924.57
2019-04-22T00:18:16.531Z,924.55
2019-04-22T00:19:43.806Z,924.63
2019-04-22T00:21:18.386Z,924.62
2019-04-22T00:22:56.700Z,924.68
2019-04-22T00:24:18.801Z,924.66
2019-04-22T00:25:48.341Z,924.72
2019-04-22T00:29:07.231Z,924.70
2019-04-22T00:30:37.387Z,924.67
2019-04-22T00:31:53.070Z,924.68
2019-04-22T00:33:26.689Z,924.68
2019-04-22T00:34:54.792Z,924.70
2019-04-22T00:36:29.162Z,924.69
2019-04-22T00:38:03.731Z,924.74
2019-04-22T00:39:37.308Z,924.71
2019-04-22T00:41:09.933Z,924.74
2019-04-22T00:42:42.761Z,924.75
2019-04-22T00:44:12.041Z,924.71
2019-04-22T00:45:43.172Z,924.67
2019-04-22T00:47:21.515Z,924.71
2019-04-22T00:49:09.041Z,924.69
2019-04-22T00:50:20.362Z,924.71
2019-04-22T00:51:52.050Z,924.72
2019-04-22T00:53:22.615Z,924.72
2019-04-22T00:55:04.190Z,924.81
2019-04-22T00:56:23.142Z,924.79
2019-04-22T00:57:54.209Z,924.79
2019-04-22T00:59:34.772Z,924.79
2019-04-22T01:00:57.586Z,924.79
2019-04-22T01:02:34.222Z,924.80
2019-04-22T01:04:20.402Z,924.77
2019-04-22T01:05:37.058Z,924.77
2019-04-22T01:07:03.805Z,924.79
2019-04-22T01:08:51.419Z,924.80
2019-04-22T01:10:11.597Z,924.86
2019-04-22T01:11:37.836Z,924.84
2019-04-22T01:13:14.182Z,924.83
2019-04-22T01:14:51.946Z,924.83
2019-04-22T01:16:17.669Z,924.82
2019-04-22T01:17:56.212Z,924.79
2019-04-22T01:19:21.566Z,924.79
2019-04-22T01:21:05.861Z,924.78
2019-04-22T01:22:23.496Z,924.78
2019-04-22T01:23:52.182Z,924.75
2019-04-22T01:25:23.671Z,924.75
2019-04-22T01:26:56.304Z,924.75
2019-04-22T01:28:26.772Z,924.72
2019-04-22T01:29:52.624Z,924.67
2019-04-22T01:31:17.173Z,924.69
2019-04-22T01:32:47.227Z,924.65
2019-04-22T01:34:28.901Z,924.65
2019-04-22T01:36:08.022Z,924.62
2019-04-22T01:37:34.617Z,924.60
2019-04-22T01:39:16.468Z,924.60
2019-04-22T01:40:58.461Z,924.55
2019-04-22T01:42:15.756Z,924.56
2019-04-22T01:44:00.793Z,924.58
2019-04-22T01:45:25.818Z,924.59
2019-04-22T01:47:02.280Z,924.61
2019-04-22T01:48:26.149Z,924.57
2019-04-22T01:50:01.379Z,924.56
2019-04-22T01:51:43.838Z,924.62
2019-04-22T01:53:07.865Z,924.60
2019-04-22T01:54:48.102Z,924.62
2019-04-22T01:56:08.899Z,924.65
2019-04-22T01:57:39.738Z,924.61
2019-04-22T01:58:59.318Z,924.70
2019-04-22T02:00:40.169Z,924.67
2019-04-22T02:02:19.055Z,924.67
2019-04-22T02:03:50.532Z,924.71
2019-04-22T02:05:17.779Z,924.71
2019-04-22T02:06:48.501Z,924.69
2019-04-22T02:08:32.889Z,924.67
2019-04-22T02:09:56.095Z,924.64
2019-04-22T02:11:29.368Z,924.63
2019-04-22T02:12:55.476Z,924.61
2019-04-22T02:14:37.459Z,924.55
2019-04-22T02:15:59.565Z,924.54
2019-04-22T02:19:13.201Z,924.50
2019-04-22T02:20:35.893Z,924.56
2019-04-22T02:22:11.474Z,924.53
2019-04-22T02:25:18.609Z,924.46
2019-04-22T02:26:42.021Z,924.46
2019-04-22T02:28:25.640Z,924.44
2019-04-22T02:29:47.700Z,924.45
2019-04-22T02:37:49.297Z,924.41
2019-04-22T02:39:19.839Z,924.41
2019-04-22T02:40:50.673Z,924.46
2019-04-22T02:42:13.285Z,924.47
2019-04-22T02:45:27.199Z,924.48
2019-04-22T02:48:26.649Z,924.47
2019-04-22T02:51:16.851Z,924.48
2019-04-22T02:52:45.327Z,924.47
2019-04-22T02:56:05.022Z,924.39
2019-04-22T02:57:31.904Z,924.36
2019-04-22T03:00:29.389Z,924.36
2019-04-22T03:01:57.942Z,924.34
2019-04-22T03:03:45.479Z,924.35
2019-04-22T03:05:08.871Z,924.31
2019-04-22T03:06:34.652Z,924.31
2019-04-22T03:11:12.572Z,924.25
2019-04-22T03:12:37.005Z,924.25
2019-04-22T03:15:55.148Z,924.16
2019-04-22T03:20:19.099Z,924.20
2019-04-22T03:21:57.639Z,924.18
2019-04-22T03:23:36.872Z,924.18
2019-04-22T03:25:23.783Z,924.18
2019-04-22T03:26:40.940Z,924.17
2019-04-22T03:27:50.533Z,924.17
2019-04-22T03:29:45.024Z,924.18
2019-04-22T03:31:34.033Z,924.14
2019-04-22T03:35:45.025Z,924.19
2019-04-22T03:39:06.855Z,924.15
2019-04-22T03:43:48.618Z,924.11
2019-04-22T03:44:51.799Z,924.15
2019-04-22T03:46:21.471Z,924.12
2019-04-22T03:50:57.554Z,924.11
2019-04-22T03:52:25.063Z,924.07
2019-04-22T03:55:29.150Z,924.04
2019-04-22T03:58:37.372Z,924.10
2019-04-22T04:06:20.752Z,924.03
2019-04-22T04:08:12.092Z,923.96
2019-04-22T04:10:47.994Z,923.96
2019-04-22T04:12:25.928Z,923.95
2019-04-22T04:13:57.895Z,923.98
2019-04-22T04:15:34.774Z,923.97
2019-04-22T04:18:29.618Z,923.94
2019-04-22T04:23:16.725Z,923.87
2019-04-22T04:26:35.156Z,923.84
2019-04-22T04:30:36.668Z,923.83
2019-04-22T04:33:50.941Z,923.74
2019-04-22T04:35:43.009Z,923.73
2019-04-22T04:37:18.157Z,923.69
2019-04-22T04:38:24.393Z,923.73
2019-04-22T04:40:05.125Z,923.77
2019-04-22T04:44:47.989Z,923.67
2019-04-22T04:46:06.917Z,923.68
2019-04-22T04:49:19.127Z,923.66
2019-04-22T04:50:42.878Z,923.69
2019-04-22T04:52:16.649Z,923.67
2019-04-22T04:53:52.124Z,923.63
2019-04-22T04:56:46.943Z,923.65
2019-04-22T05:06:00.848Z,923.66
2019-04-22T05:07:38.337Z,923.67
2019-04-22T05:09:13.451Z,923.66
2019-04-22T05:10:44.781Z,923.66
2019-04-22T05:12:19.007Z,923.60
2019-04-22T05:13:39.502Z,923.57
2019-04-22T05:19:56.736Z,923.55
2019-04-22T05:21:13.670Z,923.55
2019-04-22T05:22:51.541Z,923.53
2019-04-22T05:24:19.403Z,923.47
2019-04-22T05:25:41.037Z,923.43
2019-04-22T05:27:21.739Z,923.43
2019-04-22T05:28:49.917Z,923.45
2019-04-22T05:30:26.546Z,923.38
2019-04-22T05:31:57.286Z,923.36
2019-04-22T05:33:21.758Z,923.35
2019-04-22T05:34:55.069Z,923.32
2019-04-22T05:36:28.312Z,923.31
2019-04-22T05:38:02.745Z,923.34
2019-04-22T05:39:30.591Z,923.32
2019-04-22T05:41:02.343Z,923.33
2019-04-22T05:42:31.064Z,923.26
2019-04-22T05:44:08.199Z,923.28
2019-04-22T05:45:31.403Z,923.31
2019-04-22T05:47:11.055Z,923.28
2019-04-22T05:48:43.939Z,923.24
2019-04-22T05:50:13.142Z,923.27
2019-04-22T05:51:42.381Z,923.25
2019-04-22T05:53:14.862Z,923.27
2019-04-22T05:54:48.213Z,923.27
2019-04-22T05:56:27.799Z,923.26
2019-04-22T05:57:51.138Z,923.24
2019-04-22T05:59:28.996Z,923.22
2019-04-22T06:01:21.251Z,923.22
2019-04-22T06:02:41.762Z,923.23
2019-04-22T06:05:34.344Z,923.20
2019-04-22T06:07:02.066Z,923.20
2019-04-22T06:08:29.535Z,923.19
2019-04-22T06:10:12.306Z,923.19
2019-04-22T06:11:46.196Z,923.15
2019-04-22T06:13:06.730Z,923.12
2019-04-22T06:14:37.028Z,923.14
2019-04-22T06:16:12.469Z,923.13
2019-04-22T06:17:49.235Z,923.13
2019-04-22T06:19:36.550Z,923.12
2019-04-22T06:20:56.913Z,923.13
2019-04-22T06:22:35.364Z,923.13
2019-04-22T06:23:58.792Z,923.13
2019-04-22T06:25:38.624Z,923.12
2019-04-22T06:27:08.088Z,923.14
2019-04-22T06:28:38.757Z,923.13
2019-04-22T06:29:53.681Z,923.14
2019-04-22T06:33:13.206Z,923.08
2019-04-22T06:34:38.579Z,923.03
2019-04-22T06:36:08.084Z,923.04
2019-04-22T06:37:46.402Z,923.06
2019-04-22T06:39:14.562Z,923.02
2019-04-22T06:40:46.785Z,923.08
2019-04-22T06:42:13.704Z,923.05
2019-04-22T06:43:51.686Z,923.04
2019-04-22T06:45:19.022Z,923.01
2019-04-22T06:46:53.250Z,923.03
2019-04-22T06:48:23.826Z,922.98
2019-04-22T06:49:55.691Z,922.93
2019-04-22T06:51:29.623Z,922.96
2019-04-22T06:52:57.217Z,922.92
2019-04-22T06:54:28.416Z,922.91
2019-04-22T06:55:59.935Z,922.89
2019-04-22T06:57:30.893Z,922.88
2019-04-22T06:59:06.635Z,922.84
2019-04-22T07:00:36.952Z,922.81
2019-04-22T07:02:12.311Z,922.84
2019-04-22T07:05:17.361Z,922.91
2019-04-22T07:06:48.152Z,922.88
2019-04-22T07:09:48.527Z,922.86
2019-04-22T07:11:13.321Z,922.88
2019-04-22T07:12:48.691Z,922.84
2019-04-22T07:14:18.905Z,922.83
2019-04-22T07:15:59.572Z,922.82
2019-04-22T07:17:31.053Z,922.84
2019-04-22T07:18:56.878Z,922.83
2019-04-22T07:20:31.591Z,922.84
2019-04-22T07:22:03.277Z,922.82
2019-04-22T07:23:35.013Z,922.79
2019-04-22T07:25:06.328Z,922.84
2019-04-22T07:26:37.314Z,922.84
2019-04-22T07:28:14.218Z,922.86
2019-04-22T07:29:44.546Z,922.82
2019-04-22T07:31:16.225Z,922.82
2019-04-22T07:33:09.463Z,922.88
2019-04-22T07:34:22.211Z,922.91
2019-04-22T07:36:04.467Z,922.91
2019-04-22T07:37:29.585Z,922.88
2019-04-22T07:38:42.540Z,922.90
2019-04-22T07:40:26.985Z,922.85
2019-04-22T07:41:59.470Z,922.86
2019-04-22T07:43:39.762Z,922.82
2019-04-22T07:44:55.162Z,922.82
2019-04-22T07:46:39.159Z,922.84
2019-04-22T07:48:13.021Z,922.85
2019-04-22T07:49:39.457Z,922.89
2019-04-22T07:51:07.683Z,922.99
2019-04-22T07:52:51.817Z,923.05
2019-04-22T07:54:08.630Z,923.15
2019-04-22T07:55:40.435Z,923.18
2019-04-22T07:57:20.265Z,923.20
2019-04-22T07:58:43.298Z,923.25
2019-04-22T08:00:27.596Z,923.29
2019-04-22T08:01:48.699Z,923.35
2019-04-22T08:03:49.956Z,923.35
2019-04-22T08:06:26.199Z,923.41
2019-04-22T08:08:05.502Z,923.43
2019-04-22T08:11:08.602Z,923.46
2019-04-22T08:12:36.223Z,923.45
2019-04-22T08:13:58.811Z,923.48
2019-04-22T08:15:40.161Z,923.46
2019-04-22T08:17:30.839Z,923.47
2019-04-22T08:19:00.274Z,923.51
2019-04-22T08:21:48.659Z,923.52
2019-04-22T08:23:16.379Z,923.57
2019-04-22T08:24:47.236Z,923.62
2019-04-22T08:26:25.904Z,923.63
2019-04-22T08:27:50.744Z,923.65
2019-04-22T08:29:25.450Z,923.64
2019-04-22T08:30:56.807Z,923.68
2019-04-22T08:32:32.678Z,923.66
2019-04-22T08:34:02.094Z,923.62
2019-04-22T08:35:48.834Z,923.66
2019-04-22T08:38:37.272Z,923.71
2019-04-22T08:40:07.654Z,923.72
2019-04-22T08:41:54.803Z,923.75
2019-04-22T08:43:18.714Z,923.76
2019-04-22T08:45:04.789Z,923.77
2019-04-22T08:46:22.207Z,923.81
2019-04-22T08:47:55.088Z,923.83
2019-04-22T08:49:09.897Z,923.89
2019-04-22T08:50:47.062Z,923.91
2019-04-22T08:52:22.310Z,923.91
2019-04-22T08:53:55.982Z,923.96
2019-04-22T08:55:28.946Z,924.02
2019-04-22T08:56:52.409Z,924.01
2019-04-22T08:58:27.350Z,923.97
2019-04-22T09:01:30.193Z,924.03
2019-04-22T09:03:08.831Z,924.04
2019-04-22T09:04:31.298Z,924.11
2019-04-22T09:06:11.285Z,924.13
2019-04-22T09:07:36.875Z,924.12
2019-04-22T09:09:17.109Z,924.14
2019-04-22T09:10:46.854Z,924.15
2019-04-22T09:12:14.333Z,924.13
2019-04-22T09:13:50.531Z,924.13
2019-04-22T09:15:18.511Z,924.13
2019-04-22T09:17:04.088Z,924.15
2019-04-22T09:18:25.485Z,924.22
2019-04-22T09:21:31.662Z,924.19
2019-04-22T09:24:29.906Z,924.31
2019-04-22T09:25:53.175Z,924.36
2019-04-22T09:27:48.394Z,924.39
2019-04-22T09:29:05.043Z,924.44
2019-04-22T09:33:38.244Z,924.55
2019-04-22T09:35:10.241Z,924.53
2019-04-22T09:36:40.867Z,924.59
2019-04-22T09:38:25.426Z,924.68
2019-04-22T09:39:50.830Z,924.69
2019-04-22T09:41:24.935Z,924.68
2019-04-22T09:42:50.504Z,924.68
2019-04-22T09:44:24.623Z,924.70
2019-04-22T09:45:53.258Z,924.65
2019-04-22T09:47:29.660Z,924.72
2019-04-22T09:49:04.326Z,924.74
2019-04-22T09:50:33.263Z,924.77
2019-04-22T09:51:58.900Z,924.82
2019-04-22T09:53:43.813Z,924.86
2019-04-22T09:55:06.084Z,924.88
2019-04-22T09:56:38.774Z,924.88
2019-04-22T09:58:02.805Z,924.86
2019-04-22T09:59:48.532Z,924.90
2019-04-22T10:01:20.239Z,924.90
2019-04-22T10:02:47.583Z,924.91
2019-04-22T10:05:49.903Z,924.99
2019-04-22T10:07:23.536Z,924.99
2019-04-22T10:09:02.071Z,924.98
2019-04-22T10:11:50.840Z,924.99
2019-04-22T10:13:28.855Z,925.05
2019-04-22T10:14:55.881Z,925.00
2019-04-22T10:16:31.151Z,925.00
2019-04-22T10:18:04.164Z,925.02
2019-04-22T10:19:31.082Z,925.01
2019-04-22T10:21:10.101Z,925.03
2019-04-22T10:22:39.937Z,925.08
2019-04-22T10:24:09.112Z,925.14
2019-04-22T10:25:36.452Z,925.23
2019-04-22T10:27:07.744Z,925.23
2019-04-22T10:28:44.447Z,925.28
2019-04-22T10:30:39.142Z,925.18
2019-04-22T10:31:49.478Z,925.22
2019-04-22T10:33:20.819Z,925.27
2019-04-22T10:34:34.981Z,925.32
2019-04-22T10:35:57.389Z,925.28
2019-04-22T10:37:28.536Z,925.33
2019-04-22T10:39:00.351Z,925.38
2019-04-22T10:40:32.520Z,925.38
2019-04-22T10:42:04.987Z,925.36
2019-04-22T10:43:36.988Z,925.36
2019-04-22T10:45:08.196Z,925.29
2019-04-22T10:46:40.238Z,925.25
2019-04-22T10:48:12.325Z,925.28
2019-04-22T10:49:44.398Z,925.33
2019-04-22T10:51:14.884Z,925.39
2019-04-22T10:52:47.728Z,925.37
2019-04-22T10:54:19.767Z,925.41
2019-04-22T10:55:51.555Z,925.41
2019-04-22T10:57:22.191Z,925.41
2019-04-22T10:58:53.971Z,925.37
2019-04-22T11:00:27.237Z,925.32
2019-04-22T11:01:57.609Z,925.32
2019-04-22T11:03:30.967Z,925.28
2019-04-22T11:05:02.046Z,925.29
2019-04-22T11:06:38.264Z,925.35
2019-04-22T11:08:07.947Z,925.41
2019-04-22T11:09:49.333Z,925.42
2019-04-22T11:11:21.535Z,925.47
2019-04-22T11:12:41.470Z,925.46
2019-04-22T11:14:12.844Z,925.48
2019-04-22T11:15:44.603Z,925.40
2019-04-22T11:17:15.811Z,925.41
2019-04-22T11:18:47.693Z,925.50
2019-04-22T11:20:19.914Z,925.46
2019-04-22T11:22:05.131Z,925.44
2019-04-22T11:23:23.093Z,925.51
2019-04-22T11:24:58.976Z,925.48
2019-04-22T11:26:28.097Z,925.51
2019-04-22T11:28:00.024Z,925.52
2019-04-22T11:29:31.812Z,925.59
2019-04-22T11:31:02.638Z,925.67
2019-04-22T11:32:34.024Z,925.70
2019-04-22T11:34:06.329Z,925.70
2019-04-22T11:35:37.696Z,925.76
2019-04-22T11:37:10.198Z,925.78
2019-04-22T11:38:48.634Z,925.80
2019-04-22T11:40:21.643Z,925.88
2019-04-22T11:41:46.316Z,925.91
2019-04-22T11:43:16.786Z,925.91
2019-04-22T11:44:48.610Z,925.92
2019-04-22T11:46:21.074Z,925.99
2019-04-22T11:47:53.065Z,925.99
2019-04-22T11:49:24.175Z,926.01
2019-04-22T11:50:55.919Z,926.00
2019-04-22T11:52:28.819Z,925.99
2019-04-22T11:54:00.885Z,926.02
2019-04-22T11:55:32.609Z,925.97
2019-04-22T11:57:03.200Z,926.06
2019-04-22T11:58:35.439Z,926.07
2019-04-22T12:00:07.175Z,926.08
2019-04-22T12:01:39.046Z,926.09
2019-04-22T12:03:10.519Z,926.12
2019-04-22T12:04:43.526Z,926.15
2019-04-22T12:06:15.673Z,926.12
2019-04-22T12:07:46.983Z,926.11
2019-04-22T12:09:17.905Z,926.19
2019-04-22T12:10:56.295Z,926.21
2019-04-22T12:12:21.636Z,926.15
2019-04-22T12:13:54.022Z,926.20
2019-04-22T12:15:26.693Z,926.12
2019-04-22T12:16:57.309Z,926.08
2019-04-22T12:18:29.136Z,926.11
2019-04-22T12:20:03.703Z,926.14
2019-04-22T12:21:33.035Z,926.10
2019-04-22T12:23:05.117Z,926.11
2019-04-22T12:24:36.370Z,926.14
2019-04-22T12:26:12.807Z,926.11
2019-04-22T12:27:41.041Z,926.08
2019-04-22T12:29:13.071Z,926.06
2019-04-22T12:30:43.680Z,925.99
2019-04-22T12:32:15.841Z,926.01
2019-04-22T12:33:47.671Z,925.99
2019-04-22T12:35:19.836Z,925.95
2019-04-22T12:36:51.099Z,925.98
2019-04-22T12:38:23.988Z,926.07
2019-04-22T12:39:56.403Z,926.03
2019-04-22T12:41:26.102Z,926.10
2019-04-22T12:42:59.478Z,926.11
2019-04-22T12:44:30.490Z,926.16
2019-04-22T12:46:02.445Z,926.15
2019-04-22T12:47:33.706Z,926.11
2019-04-22T12:49:05.235Z,926.10
2019-04-22T12:50:40.370Z,926.12
2019-04-22T12:52:10.439Z,926.11
2019-04-22T12:53:42.129Z,926.16
2019-04-22T12:55:14.147Z,926.20
2019-04-22T12:56:45.807Z,926.20
2019-04-22T12:58:17.963Z,926.23
2019-04-22T12:59:48.051Z,926.17
2019-04-22T13:01:21.132Z,926.20
2019-04-22T13:02:51.734Z,926.17
2019-04-22T13:04:25.181Z,926.17
2019-04-22T13:05:56.174Z,926.14
2019-04-22T13:07:27.110Z,926.14
2019-04-22T13:09:00.257Z,926.12
2019-04-22T13:10:41.575Z,926.09
2019-04-22T13:12:03.329Z,926.07
2019-04-22T13:13:34.646Z,926.06
2019-04-22T13:15:07.842Z,926.02
2019-04-22T13:16:38.626Z,926.03
2019-04-22T13:18:17.565Z,926.01
2019-04-22T13:19:42.441Z,926.00
2019-04-22T13:21:14.900Z,925.99
2019-04-22T13:22:45.374Z,925.94
2019-04-22T13:24:19.913Z,925.98
2019-04-22T13:25:49.206Z,925.93
2019-04-22T13:27:21.218Z,925.91
2019-04-22T13:28:52.693Z,925.88
2019-04-22T13:30:26.178Z,925.87
2019-04-22T13:31:56.324Z,925.83
2019-04-22T13:33:28.709Z,925.81
2019-04-22T13:35:02.154Z,925.82
2019-04-22T13:36:31.909Z,925.80
2019-04-22T13:38:04.823Z,925.84
2019-04-22T13:39:36.716Z,925.82
2019-04-22T13:41:21.277Z,925.83
2019-04-22T13:42:40.347Z,925.76
2019-04-22T13:44:12.516Z,925.67
2019-04-22T13:45:43.703Z,925.72
2019-04-22T13:47:32.625Z,925.73
2019-04-22T13:49:17.892Z,925.78
2019-04-22T13:50:49.410Z,925.72
2019-04-22T13:52:22.628Z,925.71
2019-04-22T13:54:17.174Z,925.76
2019-04-22T13:55:41.734Z,925.71
2019-04-22T13:56:47.565Z,925.71
2019-04-22T13:58:13.399Z,925.65
2019-04-22T13:59:38.133Z,925.74
2019-04-22T14:01:02.593Z,925.74
2019-04-22T14:02:32.894Z,925.72
2019-04-22T14:04:04.944Z,925.65
2019-04-22T14:05:37.120Z,925.66
2019-04-22T14:07:08.335Z,925.65
2019-04-22T14:08:40.953Z,925.66
2019-04-22T14:10:12.246Z,925.74
2019-04-22T14:11:50.539Z,925.73
2019-04-22T14:13:16.159Z,925.68
2019-04-22T14:14:50.508Z,925.66
2019-04-22T14:16:19.852Z,925.61
2019-04-22T14:17:52.652Z,925.59
2019-04-22T14:19:23.751Z,925.57
2019-04-22T14:20:54.864Z,925.54
2019-04-22T14:22:26.611Z,925.42
2019-04-22T14:23:58.619Z,925.52
2019-04-22T14:25:30.567Z,925.73
2019-04-22T14:27:16.154Z,925.70
2019-04-22T14:28:35.458Z,925.79
2019-04-22T14:30:06.467Z,925.92
2019-04-22T14:31:38.291Z,925.93
2019-04-22T14:33:09.853Z,925.95
2019-04-22T14:34:42.730Z,925.86
2019-04-22T14:36:13.062Z,925.67
2019-04-22T14:37:45.853Z,925.60
2019-04-22T14:39:17.835Z,925.74
2019-04-22T14:40:49.829Z,925.95
2019-04-22T14:42:39.473Z,925.99
2019-04-22T14:45:00.795Z,925.68
2019-04-22T14:45:58.702Z,925.42
2019-04-22T14:47:19.878Z,925.36
2019-04-22T14:48:50.181Z,925.44
2019-04-22T14:50:22.123Z,925.55
2019-04-22T14:51:55.052Z,925.61
2019-04-22T14:53:20.759Z,925.63
2019-04-22T14:54:49.638Z,925.56
2019-04-22T14:56:08.352Z,925.64
2019-04-22T14:57:40.361Z,925.71
2019-04-22T14:59:11.316Z,925.65
2019-04-22T15:00:42.488Z,925.71
2019-04-22T15:02:14.155Z,925.60
2019-04-22T15:03:48.201Z,925.59
2019-04-22T15:05:18.614Z,925.72
2019-04-22T15:06:50.394Z,925.68
2019-04-22T15:08:21.591Z,925.56
2019-04-22T15:09:53.293Z,925.48
2019-04-22T15:11:26.583Z,925.38
2019-04-22T15:12:59.114Z,925.41
2019-04-22T15:14:29.908Z,925.47
2019-04-22T15:16:03.059Z,925.42
2019-04-22T15:17:33.171Z,925.43
2019-04-22T15:19:04.328Z,925.42
2019-04-22T15:20:37.391Z,925.39
2019-04-22T15:22:08.462Z,925.33
2019-04-22T15:23:40.441Z,925.30
2019-04-22T15:25:12.559Z,925.38
2019-04-22T15:26:44.537Z,925.36
2019-04-22T15:28:15.467Z,925.45
2019-04-22T15:29:47.362Z,925.52
2019-04-22T15:31:19.454Z,925.29
2019-04-22T15:32:51.581Z,925.29
2019-04-22T15:34:22.669Z,925.36
2019-04-22T15:35:55.554Z,925.31
2019-04-22T15:37:26.463Z,925.29
2019-04-22T15:38:59.377Z,925.20
2019-04-22T15:40:31.011Z,925.26
2019-04-22T15:42:11.804Z,925.27
2019-04-22T15:43:36.626Z,925.34
2019-04-22T15:45:07.757Z,925.44
2019-04-22T15:46:37.259Z,925.35
2019-04-22T15:48:10.260Z,925.35
2019-04-22T15:49:42.161Z,925.32
2019-04-22T15:51:13.040Z,925.38
2019-04-22T15:52:49.685Z,925.30
2019-04-22T15:54:16.242Z,925.27
2019-04-22T15:55:48.061Z,925.27
2019-04-22T15:57:20.360Z,925.27
2019-04-22T15:58:51.697Z,925.37
2019-04-22T16:00:35.334Z,925.36
2019-04-22T16:01:59.837Z,925.35
2019-04-22T16:03:28.866Z,925.27
2019-04-22T16:04:59.016Z,925.26
2019-04-22T16:06:31.940Z,925.19
2019-04-22T16:08:03.360Z,925.15
2019-04-22T16:09:34.975Z,925.15
2019-04-22T16:11:06.295Z,925.14
2019-04-22T16:12:47.485Z,925.25
2019-04-22T16:14:10.548Z,925.17
2019-04-22T16:15:42.729Z,925.31
2019-04-22T16:17:14.750Z,925.18
2019-04-22T16:18:46.470Z,925.05
2019-04-22T16:20:17.411Z,925.06
2019-04-22T16:21:55.582Z,925.10
2019-04-22T16:23:24.604Z,924.97
2019-04-22T16:24:54.112Z,924.95
2019-04-22T16:26:26.453Z,925.03
2019-04-22T16:27:56.566Z,925.01
2019-04-22T16:31:01.347Z,925.02
2019-04-22T16:32:33.867Z,924.96
2019-04-22T16:34:04.568Z,924.95
2019-04-22T16:35:36.748Z,925.06
2019-04-22T16:37:07.275Z,925.08
2019-04-22T16:40:12.566Z,924.84
2019-04-22T16:41:44.497Z,924.77
2019-04-22T16:43:14.900Z,924.67
2019-04-22T16:44:47.554Z,924.60
2019-04-22T16:46:19.421Z,924.57
2019-04-22T16:47:51.406Z,924.55
2019-04-22T16:49:23.490Z,924.57
2019-04-22T16:52:25.944Z,924.60
2019-04-22T16:53:57.998Z,924.69
2019-04-22T16:55:30.762Z,924.63
2019-04-22T16:57:01.863Z,924.58
2019-04-22T16:58:34.729Z,924.65
2019-04-22T17:00:06.790Z,924.53
2019-04-22T17:01:36.825Z,924.55
2019-04-22T17:03:08.899Z,924.45
2019-04-22T17:04:40.869Z,924.49
2019-04-22T17:07:44.208Z,924.58
2019-04-22T17:09:17.644Z,924.43
2019-04-22T17:10:47.538Z,924.44
2019-04-22T17:12:19.658Z,924.42
2019-04-22T17:13:51.060Z,924.45
2019-04-22T17:15:24.189Z,924.36
2019-04-22T17:16:56.721Z,924.41
2019-04-22T17:18:27.371Z,924.40
2019-04-22T17:19:59.618Z,924.45
2019-04-22T17:21:31.774Z,924.41
2019-04-22T17:23:02.203Z,924.45
2019-04-22T17:26:06.331Z,924.47
2019-04-22T17:27:37.479Z,924.40
2019-04-22T17:30:41.570Z,924.39
2019-04-22T17:32:15.891Z,924.31
2019-04-22T17:35:17.821Z,924.24
2019-04-22T17:36:49.139Z,924.29
2019-04-22T17:38:29.350Z,924.24
2019-04-22T17:40:10.128Z,924.20
2019-04-22T17:41:38.819Z,924.18
2019-04-22T17:43:29.872Z,924.19
2019-04-22T17:45:10.981Z,924.28
2019-04-22T17:46:19.513Z,924.33
2019-04-22T17:47:45.284Z,924.29
2019-04-22T17:49:35.628Z,924.30
2019-04-22T17:52:42.075Z,924.34
2019-04-22T17:54:02.343Z,924.36
2019-04-22T17:57:01.322Z,924.37
2019-04-22T17:58:42.244Z,924.32
2019-04-22T18:00:07.043Z,924.24
2019-04-22T18:01:40.195Z,924.22
2019-04-22T18:05:59.474Z,924.34
2019-04-22T18:07:42.991Z,924.26
2019-04-22T18:09:21.103Z,924.40
2019-04-22T18:10:47.756Z,924.43
2019-04-22T18:12:25.819Z,924.48
2019-04-22T18:14:00.300Z,924.44
2019-04-22T18:15:24.083Z,924.46
2019-04-22T18:17:02.331Z,924.46
2019-04-22T18:18:30.378Z,924.37
2019-04-22T18:19:54.636Z,924.46
2019-04-22T18:21:26.448Z,924.48
2019-04-22T18:22:54.755Z,924.50
2019-04-22T18:26:05.393Z,924.41
2019-04-22T18:29:11.202Z,924.43
2019-04-22T18:30:34.719Z,924.38
2019-04-22T18:33:46.411Z,924.35
2019-04-22T18:36:45.690Z,924.31
2019-04-22T18:38:33.217Z,924.42
2019-04-22T18:39:52.968Z,924.48
2019-04-22T18:41:23.780Z,924.51
2019-04-22T18:42:58.844Z,924.49
2019-04-22T18:44:27.077Z,924.42
2019-04-22T18:46:07.918Z,924.37
2019-04-22T18:47:29.620Z,924.51
2019-04-22T18:49:02.024Z,924.53
2019-04-22T18:50:49.863Z,924.55
2019-04-22T18:53:44.906Z,924.51
2019-04-22T18:55:07.228Z,924.44
2019-04-22T18:59:33.609Z,924.46
2019-04-22T19:02:35.000Z,924.50
2019-04-22T19:04:12.632Z,924.54
2019-04-22T19:05:49.456Z,924.52
2019-04-22T19:07:38.426Z,924.49
2019-04-22T19:09:03.214Z,924.50
2019-04-22T19:10:34.390Z,924.49
2019-04-22T19:12:16.750Z,924.47
2019-04-22T19:15:13.786Z,924.42
2019-04-22T19:16:39.754Z,924.40
2019-04-22T19:18:22.507Z,924.37
2019-04-22T19:22:52.006Z,924.29
2019-04-22T19:24:15.011Z,924.27
2019-04-22T19:27:23.671Z,924.26
2019-04-22T19:28:58.847Z,924.27
2019-04-22T19:30:22.028Z,924.36
2019-04-22T19:31:58.733Z,924.40
2019-04-22T19:33:28.654Z,924.46
2019-04-22T19:37:58.744Z,924.61
2019-04-22T19:39:34.203Z,924.63
2019-04-22T19:41:14.562Z,924.62
2019-04-22T19:47:28.507Z,924.72
2019-04-22T19:48:49.384Z,924.76
2019-04-22T19:50:22.820Z,924.77
2019-04-22T19:54:58.344Z,924.88
2019-04-22T19:56:21.139Z,924.89
2019-04-22T19:57:54.772Z,924.91
2019-04-22T19:59:20.714Z,924.93
2019-04-22T20:00:50.698Z,924.93
2019-04-22T20:02:28.613Z,924.99
2019-04-22T20:04:12.100Z,924.96
2019-04-22T20:05:37.219Z,924.96
2019-04-22T20:07:06.819Z,924.96
2019-04-22T20:08:39.648Z,925.01
2019-04-22T20:10:10.510Z,924.99
2019-04-22T20:11:35.223Z,924.99
2019-04-22T20:13:20.856Z,924.97
2019-04-22T20:14:48.053Z,924.95
2019-04-22T20:18:14.466Z,925.03
2019-04-22T20:20:58.470Z,925.00
2019-04-22T20:22:26.701Z,925.06
2019-04-22T20:23:47.269Z,925.06
2019-04-22T20:27:02.877Z,925.06
2019-04-22T20:28:37.843Z,925.10
2019-04-22T20:30:04.986Z,925.09
2019-04-22T20:31:39.132Z,925.10
2019-04-22T20:33:01.916Z,925.10
2019-04-22T20:34:44.037Z,925.05
2019-04-22T20:36:26.447Z,925.02
2019-04-22T20:37:47.971Z,924.98
2019-04-22T20:39:15.693Z,924.98
2019-04-22T20:40:42.630Z,924.93
2019-04-22T20:42:31.453Z,924.97
2019-04-22T20:43:52.775Z,924.96
2019-04-22T20:45:29.097Z,925.03
2019-04-22T20:46:56.139Z,925.09
2019-04-22T20:48:22.247Z,925.13
2019-04-22T20:50:04.468Z,925.14
2019-04-22T20:51:35.771Z,925.12
2019-04-22T20:53:06.986Z,925.14
2019-04-22T20:54:37.375Z,925.14
2019-04-22T20:56:08.405Z,925.07
2019-04-22T20:57:46.254Z,925.02
2019-04-22T20:59:09.977Z,925.04
2019-04-22T21:00:36.307Z,925.00
2019-04-22T21:02:11.526Z,925.02
2019-04-22T21:03:34.444Z,925.03
2019-04-22T21:05:04.257Z,925.05
2019-04-22T21:06:48.891Z,925.12
2019-04-22T21:08:20.929Z,925.19
2019-04-22T21:09:50.539Z,925.24
2019-04-22T21:11:19.701Z,925.27
2019-04-22T21:12:48.178Z,925.26
2019-04-22T21:14:23.226Z,925.30
2019-04-22T21:16:04.203Z,925.28
2019-04-22T21:17:31.198Z,925.35
2019-04-22T21:19:02.769Z,925.36
2019-04-22T21:20:41.507Z,925.38
2019-04-22T21:22:10.950Z,925.41
2019-04-22T21:23:30.766Z,925.41
2019-04-22T21:25:06.152Z,925.46
2019-04-22T21:26:39.973Z,925.42
2019-04-22T21:28:15.875Z,925.44
2019-04-22T21:29:39.948Z,925.43
2019-04-22T21:31:19.180Z,925.42
2019-04-22T21:32:45.384Z,925.41
2019-04-22T21:34:19.227Z,925.42
2019-04-22T21:36:18.937Z,925.40